x

Northern Hawaii One - 245nm Ne Of Honolulu Hi (51000) Wave Buoy

5:50am - Mon 20th Feb 2017 All times are HST. -10 hours from GMT.

  • Sig Wave height 17.1ft
  • Swell Direction
  • Peak Period 15s
  • Average Period 10s
  • Wind
    20mph, 27mph gusts
  • Sea Temp 74°f
  • Air Temp 68°f
  • Sea Pressure 1023.4mb
  • Northern Hawaii One - 245nm Ne Of Honolulu Hi
  • Northern Hawaii One - 245nm Ne Of Honolulu Hi

More Historic Weather Station data

Upgrade to MSW Pro to gain access to the past 30 days of data for over 8000 Wavebouys and Weather Stations around the globe.

Join Pro

Comparision Forecast

View Surf forecast
   
Mon 02/20 5:50am 17ft 15s 10s 20 27 mph 1023.4mb 74f 68f
4:50am 17.5ft 14s 10s 20 25 mph 1023mb 74f 68f
3:50am 18.5ft 15s 10s 22 27 mph 1022.5mb 74f 69f
2:50am 19ft 15s 11s 20 25 mph 1022.9mb 74f 69f
1:50am 17ft 14s 10s 20 22 mph 1023.2mb 74f 69f
12:50am 17ft 14s 10s 20 25 mph 1024mb 74f 69f
Sun 02/19 11:50pm 17ft 14s 9s 18 22 mph 1024.2mb 74f 68f
10:50pm 18.5ft 14s 10s 20 27 mph 1024.3mb 74f 68f
9:50pm 17.5ft 13s 10s 22 27 mph 1024.1mb 74f 69f
8:50pm 17ft 13s 10s 22 29 mph 1023.9mb 74f 69f
7:50pm 17.5ft 13s 10s 20 25 mph 1023.3mb 74f 69f
6:50pm 19.5ft 14s 10s 18 25 mph 1022.6mb 74f 70f
5:50pm 17.5ft 13s 10s 18 22 mph 1022.1mb 74f 69f
4:50pm 15.5ft 14s 9s 20 25 mph 1021.4mb 74f 69f
3:50pm 15ft 11s 9s 18 22 mph 1020.9mb 74f 69f
2:50pm 13.5ft 11s 8s 20 25 mph 1020.8mb 74f 69f
1:50pm 12ft 11s 8s 18 22 mph 1021.1mb 74f 69f
12:50pm 11.5ft 11s 8s 22 27 mph 1021.5mb 74f 70f
11:50am 10.5ft 10s 7s 20 25 mph 1022.2mb 74f 70f
10:50am 9.5ft 11s 7s 20 25 mph 1022.3mb 73f 70f
9:50am 9ft 8s 7s 22 27 mph 1022mb 73f 70f
8:50am 8ft 10s 6s 20 25 mph 1021.8mb 73f 71f
7:50am 7.5ft 11s 6s 20 22 mph 1021.2mb 73f 70f
6:50am 7ft 7s 6s 22 29 mph 1020.6mb 73f 70f
5:50am 6ft 11s 6s 18 22 mph 1019.9mb 73f 71f
4:50am 6ft 11s 6s 18 22 mph 1019.1mb 73f 71f
3:50am 5.5ft 12s 6s 18 22 mph 1018.7mb 73f 71f
2:50am 5.5ft 12s 6s 20 25 mph 1018.7mb 73f 71f
1:50am 4.5ft 12s 6s 22 25 mph 1018.7mb 73f 72f
12:50am 5ft 11s 6s 18 22 mph 1019.1mb 73f 72f
Sat 02/18 11:50pm 5ft 12s 6s 16 20 mph 1019.3mb 73f 73f
10:50pm 4.5ft 11s 6s 16 18 mph 1019.4mb 74f 73f
9:50pm 4.5ft 12s 7s 16 20 mph 1019.3mb 74f 73f
8:50pm 4.5ft 11s 7s 13 18 mph 1019.1mb 74f 73f
7:50pm 4.5ft 11s 8s 16 22 mph 1018.9mb 74f 71f
6:50pm 4.5ft 11s 7s 9 11 mph 1018.3mb 74f 74f
5:50pm 4.5ft 11s 8s 9 11 mph 1017.8mb 74f 74f
4:50pm 4.5ft 11s 7s 9 11 mph 1017.3mb 74f 75f
3:50pm 4.5ft 12s 7s 11 13 mph 1017.3mb 74f 75f
2:50pm 4.5ft 11s 8s 11 13 mph 1017.3mb 74f 75f
1:50pm 4.5ft 11s 8s 9 11 mph 1017.5mb 74f 74f
12:50pm 4.5ft 11s 8s 11 13 mph 1018.1mb 74f 74f
11:50am 4.5ft 11s 8s 9 11 mph 1019.1mb 74f 74f
10:50am 4.5ft 12s 8s 9 11 mph 1019.8mb 73f 74f
9:50am 5ft 12s 8s 7 9 mph 1020mb 73f 74f
8:50am 4.5ft 11s 8s 9 11 mph 1019.6mb 73f 74f
7:50am 4.5ft 12s 8s 7 9 mph 1019.3mb 73f 73f
6:50am 5ft 11s 8s 9 11 mph 1019mb 73f 73f
5:50am 5ft 12s 8s 9 11 mph 1018.5mb 73f 73f
4:50am 5ft 11s 8s 7 9 mph 1018.4mb 73f 73f
3:50am 5ft 11s 8s 9 11 mph 1018.4mb 73f 73f
2:50am 5ft 12s 8s 9
mph
1018.7mb 73f 73f
1:50am 5.5ft 11s 8s 7 9 mph 1019.3mb 73f 73f
12:50am 5.5ft 12s 8s 7 9 mph 1019.8mb 73f 73f
Fri 02/17 11:50pm 5.5ft 13s 8s 4 7 mph 1020.3mb 73f 74f
10:50pm 5.5ft 11s 8s 4 7 mph 1020.6mb 73f 74f
9:50pm 5ft 11s 7s 7 9 mph 1020.7mb 73f 74f
8:50pm 6ft 11s 8s 4 7 mph 1020.6mb 73f 73f
7:50pm 6ft 12s 8s 4 9 mph 1020.2mb 73f 74f
6:50pm 6.5ft 12s 8s 7 9 mph 1019.6mb 73f 73f
5:50pm 7ft 11s 8s 9 11 mph 1019.4mb 73f 73f
4:50pm 6.5ft 12s 8s 9 11 mph 1018.9mb 73f 73f
3:50pm 7.5ft 11s 8s 11 16 mph 1018.3mb 73f 73f
2:50pm 7ft 12s 8s 11 16 mph 1018.2mb 73f 73f
1:50pm 7.5ft 11s 8s 13 16 mph 1018.5mb 73f 73f
12:50pm 7ft 12s 8s 16 18 mph 1019.4mb 73f 73f
11:50am 7ft 12s 8s 13 18 mph 1020.1mb 73f 73f
10:50am 7.5ft 11s 8s 16 18 mph 1021mb 73f 72f
9:50am 7.5ft 11s 8s 13 18 mph 1021.1mb 73f 72f
8:50am 8ft 12s 8s 13 18 mph 1020.9mb 73f 73f
7:50am 7.5ft 12s 8s 16 20 mph 1020.6mb 73f 72f
6:50am 7.5ft 12s 8s 16 20 mph 1020.1mb 73f 72f
5:50am 8ft 12s 8s 13 18 mph 1019.9mb 73f 72f
4:50am 7.5ft 13s 8s 13 18 mph 1019.7mb 73f 72f
3:50am 8ft 13s 8s 16 18 mph 1019.9mb 73f 72f
2:50am 7ft 11s 8s 13 18 mph 1020.5mb 73f 72f
1:50am 7ft 13s 8s 16 18 mph 1020.7mb 73f 72f
12:50am 8ft 13s 8s 13 18 mph 1021.5mb 73f 72f
Thu 02/16 11:50pm 8ft 12s 8s 16 20 mph 1021.6mb 73f 72f
10:50pm 8ft 11s 8s 16 18 mph 1022.4mb 73f 72f
9:50pm 8.5ft 12s 8s 16 20 mph 1022.5mb 73f 72f
8:50pm 8ft 13s 8s 16 20 mph 1022.3mb 73f 72f
7:50pm 8ft 12s 8s 16 20 mph 1021.7mb 73f 72f
6:50pm 9ft 13s 8s 18 20 mph 1021mb 73f 72f
5:50pm 9ft 11s 8s 16 20 mph 1020.2mb 73f 73f